Brighton, CO (80601)

8:40 PM MST on December 27, 2014 (GMT -0700)
Brighton East Farms | Change Station
CLOSE
Current Station
Personal Weather Station
Location: Brighton, CO
Elevation: 5145 ft
Nearby Weather Stations

Elev 5145 ft 40.00 °N, 104.76 °W | Updated 5 seconds ago

Partly Cloudy
Partly Cloudy
10.4 °F
Feels Like 5 °F
N
3.1
Wind Variable Wind from South
Gusts 3.1 mph

Today
High -- | Low -- °F
--% Chance of Precip.
Yesterday
High -- | Low -- °F
Precip. -- in
7:19 AM 4:40 PM
Waxing Crescent, 43% visible
Pressure 30.22 in
Visibility 10.0 miles
Clouds Scattered Clouds 16000 ft
Windchill 5 °F
Dew Point 5 °F
Humidity 77%
Rainfall 0.00 in
Snow Depth Not available.
UV 0 out of 12
Pollen .10 out of 12
Air Quality Not available.
Flu Activity Not available.
METAR KDEN 280253Z 22008KT 10SM SCT160 M08/M13 A3005 RMK AO2 SLP231 T10781128 51002 $

More Conditions Fewer Conditions

Pressure 30.22 in
Visibility 10.0 miles
Clouds Scattered Clouds 16000 ft
Windchill 5 °F
Dew Point 5 °F
Humidity 77%
Rainfall 0.00 in
Snow Depth Not available.
UV 0 out of 12
Pollen .10 out of 12
Air Quality Not available.
Flu Activity Not available.
METAR KDEN 280253Z 22008KT 10SM SCT160 M08/M13 A3005 RMK AO2 SLP231 T10781128 51002 $

More Conditions Fewer Conditions

10-Day Weather Forecast

Almanac

Astronomy

Dec. 27, 2014 Rise Set
Actual Time
Civil Twilight
Nautical Twilight
Astronomical Twilight
Moon
Length of Visible Light
Length of Day
Tomorrow will be .
, % of the Moon is Illuminated

Today's Extremes

State Highs State Lows

Community

WunderPhotos

Upload Photos

1,781,185 photos uploaded!

WunderBlogs® & News

Nearby

Air Quality

  Air Quality AQ Index Pollutant
Not available.

Snow Depth

Station Depth Elevation

Earthquake Activity

City Distance Mag. Time & Date
Minimum magnitude displayed is 2.5.

Coastal Water Temperatures

Place Temperature

Nearby Weather Stations